Time;durP1;ratioP1;P1;durP2;ratioP2;P2;SDS_P1;SDS_P2;PMS_P1;PMS_P2;Temp;Humidity;BMP_temperature;BMP_pressure;BME280_temperature;BME280_humidity;BME280_pressure;Samples;Min_cycle;Max_cycle;Signal;HPM_P1;HPM_P2
2023/01/31 00:00:26;;;;;;;28.08;3.08;;;4.50;1.00;;;;;;5032294;28;20033;-64
2023/01/31 00:02:52;;;;;;;29.20;2.53;;;4.50;1.00;;;;;;5031156;28;20052;-65
2023/01/31 00:05:18;;;;;;;20.50;2.67;;;4.50;1.00;;;;;;5049575;28;20029;-64
2023/01/31 00:07:46;;;;;;;29.35;2.78;;;4.40;1.00;;;;;;5050825;28;20037;-64
2023/01/31 00:10:12;;;;;;;27.35;2.50;;;4.50;1.00;;;;;;5047492;28;20056;-65
2023/01/31 00:12:38;;;;;;;37.15;3.10;;;4.40;1.00;;;;;;5049354;28;20041;-64
2023/01/31 00:15:04;;;;;;;24.27;2.67;;;4.40;1.00;;;;;;5049078;28;20487;-63
2023/01/31 00:17:30;;;;;;;27.90;2.53;;;4.30;1.00;;;;;;5050563;28;20415;-65
2023/01/31 00:19:56;;;;;;;20.02;2.80;;;4.30;1.00;;;;;;5050867;28;20095;-63
2023/01/31 00:22:21;;;;;;;27.02;2.17;;;4.30;1.00;;;;;;5050087;28;20073;-64
2023/01/31 00:24:47;;;;;;;23.48;2.63;;;4.30;1.00;;;;;;5048330;28;20098;-63
2023/01/31 00:27:13;;;;;;;31.23;2.60;;;4.20;1.00;;;;;;5030614;28;20130;-63
2023/01/31 00:29:38;;;;;;;18.98;2.13;;;4.10;1.00;;;;;;5049619;28;20032;-65
2023/01/31 00:32:04;;;;;;;31.13;3.35;;;4.00;1.00;;;;;;5051515;28;20110;-63
2023/01/31 00:34:30;;;;;;;39.30;3.33;;;3.90;1.00;;;;;;5014979;28;20044;-64
2023/01/31 00:36:55;;;;;;;29.23;3.45;;;3.80;1.00;;;;;;5048815;28;20506;-63
2023/01/31 00:39:21;;;;;;;29.55;3.10;;;3.80;1.00;;;;;;5048690;28;20099;-63
2023/01/31 00:41:47;;;;;;;35.92;3.30;;;3.70;1.00;;;;;;5049719;28;20129;-63
2023/01/31 00:44:13;;;;;;;34.28;3.28;;;3.50;1.00;;;;;;5015346;28;20043;-63
2023/01/31 00:46:39;;;;;;;29.00;3.30;;;3.40;14.70;;;;;;5033054;28;20199;-64
2023/01/31 00:49:04;;;;;;;36.95;3.30;;;3.40;28.80;;;;;;5050116;28;20093;-65
2023/01/31 00:51:30;;;;;;;30.67;2.88;;;3.20;22.90;;;;;;5050010;28;20044;-64
2023/01/31 00:53:56;;;;;;;35.55;3.15;;;3.20;22.50;;;;;;5048177;28;21014;-64
2023/01/31 00:56:23;;;;;;;31.88;3.00;;;3.10;71.70;;;;;;5049521;28;20071;-63
2023/01/31 00:58:49;;;;;;;23.35;2.60;;;3.00;83.10;;;;;;5047861;28;20040;-63
2023/01/31 01:01:18;;;;;;;37.25;3.00;;;3.00;99.90;;;;;;5049219;28;20395;-64
2023/01/31 01:03:44;;;;;;;40.35;3.70;;;2.90;99.90;;;;;;5049686;28;20068;-64
2023/01/31 01:06:11;;;;;;;30.45;3.42;;;2.90;99.90;;;;;;5047507;28;20327;-63
2023/01/31 01:08:38;;;;;;;33.17;3.47;;;2.80;99.90;;;;;;5048045;28;20037;-63
2023/01/31 01:11:07;;;;;;;41.25;4.38;;;2.80;99.90;;;;;;5048163;28;20056;-63
2023/01/31 01:13:33;;;;;;;30.38;2.78;;;2.80;99.90;;;;;;5049887;28;20041;-64
2023/01/31 01:16:04;;;;;;;30.88;2.35;;;2.90;99.90;;;;;;5049218;28;20482;-64
2023/01/31 01:18:29;;;;;;;26.48;3.13;;;2.80;99.90;;;;;;5049326;28;20041;-64
2023/01/31 01:20:55;;;;;;;30.65;2.60;;;2.80;99.90;;;;;;5021120;28;20339;-64
2023/01/31 01:23:21;;;;;;;31.42;2.75;;;2.70;99.90;;;;;;5050068;28;20044;-64
2023/01/31 01:25:46;;;;;;;27.13;2.33;;;2.60;99.90;;;;;;5048928;28;20055;-64
2023/01/31 01:28:12;;;;;;;27.90;2.90;;;2.60;99.90;;;;;;5031622;28;20063;-64
2023/01/31 01:30:38;;;;;;;26.02;2.50;;;2.60;99.90;;;;;;5030905;28;20596;-64
2023/01/31 01:33:04;;;;;;;33.72;3.53;;;2.50;99.90;;;;;;5048861;28;20550;-65
2023/01/31 01:35:30;;;;;;;27.08;2.63;;;2.60;99.90;;;;;;5048247;28;20087;-63
2023/01/31 01:37:55;;;;;;;27.88;2.58;;;2.60;99.90;;;;;;5050162;28;20038;-64
2023/01/31 01:40:21;;;;;;;23.90;2.67;;;2.60;99.90;;;;;;5048264;28;20348;-63
2023/01/31 01:42:47;;;;;;;31.92;2.88;;;2.60;99.90;;;;;;5050335;28;20473;-63
2023/01/31 01:45:15;;;;;;;35.88;3.40;;;2.60;99.90;;;;;;5049778;28;20035;-64
2023/01/31 01:47:54;;;;;;;28.52;2.60;;;2.60;99.90;;;;;;5049499;28;20476;-64
2023/01/31 01:50:26;;;;;;;26.60;2.75;;;2.70;99.90;;;;;;5047109;28;20406;-64
2023/01/31 01:53:17;;;;;;;22.67;2.13;;;2.70;99.90;;;;;;5031548;28;20037;-65
2023/01/31 01:55:48;;;;;;;28.95;2.67;;;2.70;99.90;;;;;;5047157;28;20037;-64
2023/01/31 01:58:19;;;;;;;32.72;3.28;;;2.70;99.90;;;;;;5047591;28;20100;-64
2023/01/31 02:00:47;;;;;;;29.35;2.58;;;2.70;99.90;;;;;;5047193;28;20503;-65
2023/01/31 02:03:14;;;;;;;29.30;2.88;;;2.70;99.90;;;;;;5048224;28;20053;-64
2023/01/31 02:05:51;;;;;;;27.08;2.45;;;2.70;99.90;;;;;;5030232;28;20291;-64
2023/01/31 02:08:20;;;;;;;32.90;2.35;;;2.80;99.90;;;;;;5047722;28;20136;-63
2023/01/31 02:10:48;;;;;;;20.05;2.17;;;2.70;99.90;;;;;;5049261;28;20586;-65
2023/01/31 02:13:15;;;;;;;30.67;2.70;;;2.80;99.90;;;;;;5048743;28;20236;-63
2023/01/31 02:15:41;;;;;;;23.02;2.17;;;2.80;99.90;;;;;;5047814;28;20028;-63
2023/01/31 02:18:08;;;;;;;22.42;2.60;;;2.80;99.90;;;;;;5053709;28;20039;-64
2023/01/31 02:21:08;;;;;;;24.08;2.20;;;3.00;99.90;;;;;;5050929;28;20486;-63
2023/01/31 02:23:46;;;;;;;27.63;2.40;;;3.10;99.90;;;;;;5050791;28;20052;-64
2023/01/31 02:26:40;;;;;;;28.35;3.03;;;3.10;99.90;;;;;;5050568;28;20036;-63
2023/01/31 02:29:30;;;;;;;32.17;2.55;;;3.20;99.90;;;;;;5053090;28;20068;-66
2023/01/31 02:32:26;;;;;;;24.38;2.05;;;3.20;99.90;;;;;;5052733;28;20037;-64
2023/01/31 02:35:10;;;;;;;22.60;2.50;;;3.30;99.90;;;;;;5053313;28;20029;-64
2023/01/31 02:38:13;;;;;;;20.02;2.13;;;3.30;99.90;;;;;;5053206;28;20043;-63
2023/01/31 02:40:48;;;;;;;31.05;2.25;;;3.40;99.90;;;;;;5050946;28;20292;-65
2023/01/31 02:43:28;;;;;;;23.30;2.22;;;3.50;99.90;;;;;;5053790;28;20044;-63
2023/01/31 02:46:06;;;;;;;24.15;1.80;;;3.50;99.90;;;;;;5050835;28;20136;-63
2023/01/31 02:48:51;;;;;;;23.55;2.58;;;3.60;99.90;;;;;;5050629;28;20054;-63
2023/01/31 02:51:40;;;;;;;16.58;1.27;;;3.60;99.90;;;;;;5050476;28;20041;-63
2023/01/31 02:54:22;;;;;;;27.60;2.00;;;3.70;99.90;;;;;;5052306;28;20040;-63
2023/01/31 02:56:50;;;;;;;19.75;1.45;;;3.80;99.90;;;;;;5052462;28;20312;-63
2023/01/31 02:59:25;;;;;;;19.92;1.80;;;3.80;99.90;;;;;;5050347;28;20364;-64
2023/01/31 03:02:02;;;;;;;27.00;2.17;;;3.80;99.90;;;;;;5051915;28;20060;-64
2023/01/31 03:04:35;;;;;;;24.85;2.30;;;3.80;99.90;;;;;;5017173;28;20044;-64
2023/01/31 03:07:07;;;;;;;26.58;2.10;;;3.90;99.90;;;;;;5051283;28;20434;-64
2023/01/31 03:09:37;;;;;;;23.25;2.00;;;3.80;99.90;;;;;;5034070;28;20557;-64
2023/01/31 03:12:51;;;;;;;19.35;2.05;;;3.90;99.90;;;;;;5034318;28;20183;-64
2023/01/31 03:18:31;;;;;;;25.90;2.13;;;4.10;99.90;;;;;;5016180;28;20388;-63
2023/01/31 03:21:15;;;;;;;20.83;1.75;;;4.10;99.90;;;;;;5052355;28;20807;-63
2023/01/31 03:23:46;;;;;;;24.08;1.92;;;4.20;99.90;;;;;;5051370;28;20033;-64
2023/01/31 03:26:12;;;;;;;23.95;2.05;;;4.20;99.90;;;;;;5052719;28;20123;-64
2023/01/31 03:28:41;;;;;;;18.67;1.50;;;4.20;99.90;;;;;;5051778;28;20438;-64
2023/01/31 03:31:15;;;;;;;16.08;1.67;;;4.30;99.90;;;;;;5052732;28;20658;-64
2023/01/31 03:33:44;;;;;;;18.27;1.52;;;4.30;99.90;;;;;;5050007;28;20028;-64
2023/01/31 03:36:13;;;;;;;34.40;2.70;;;4.30;99.90;;;;;;5033620;28;20086;-64
2023/01/31 03:38:54;;;;;;;23.85;1.70;;;4.30;99.90;;;;;;5050316;28;20178;-64
2023/01/31 03:41:24;;;;;;;21.15;1.48;;;4.20;99.90;;;;;;5050588;28;20044;-64
2023/01/31 03:44:09;;;;;;;27.95;2.20;;;4.30;99.90;;;;;;5051806;28;20046;-64
2023/01/31 03:46:44;;;;;;;21.10;2.00;;;4.30;99.90;;;;;;5050781;28;20256;-64
2023/01/31 03:49:14;;;;;;;20.55;2.10;;;4.30;99.90;;;;;;5050284;28;20111;-64
2023/01/31 03:51:47;;;;;;;26.40;2.17;;;4.30;99.90;;;;;;5050147;28;20044;-65
2023/01/31 03:54:23;;;;;;;18.48;1.42;;;4.30;99.90;;;;;;5050271;28;20041;-64
2023/01/31 03:56:55;;;;;;;19.40;1.45;;;4.30;99.90;;;;;;5050814;28;20106;-64
2023/01/31 03:59:27;;;;;;;25.15;2.50;;;4.20;99.90;;;;;;5050891;28;20109;-65
2023/01/31 04:01:57;;;;;;;17.67;1.75;;;4.20;99.90;;;;;;5051616;28;20037;-64
2023/01/31 04:04:38;;;;;;;18.92;1.33;;;4.20;99.90;;;;;;5050567;28;20445;-63
2023/01/31 04:07:05;;;;;;;20.35;1.73;;;4.20;99.90;;;;;;5050083;28;20052;-64
2023/01/31 04:09:31;;;;;;;23.20;2.05;;;4.10;99.90;;;;;;5050579;28;20538;-63
2023/01/31 04:12:01;;;;;;;21.45;1.65;;;4.10;99.90;;;;;;5050559;28;20156;-64
2023/01/31 04:14:28;;;;;;;21.38;1.63;;;4.20;99.90;;;;;;5050813;28;20256;-64
2023/01/31 04:16:53;;;;;;;19.48;2.00;;;4.20;99.90;;;;;;5031908;28;20043;-64
2023/01/31 04:19:19;;;;;;;23.80;1.80;;;4.20;99.90;;;;;;5051822;28;20044;-64
2023/01/31 04:21:45;;;;;;;18.23;1.88;;;4.10;99.90;;;;;;5050660;28;20083;-64
2023/01/31 04:24:10;;;;;;;18.52;1.88;;;4.10;99.90;;;;;;5050646;28;20067;-64
2023/01/31 04:26:36;;;;;;;26.00;2.28;;;4.10;99.90;;;;;;5049423;28;20090;-64
2023/01/31 04:29:03;;;;;;;14.30;1.42;;;4.10;99.90;;;;;;5047011;28;20149;-63
2023/01/31 04:31:29;;;;;;;27.05;1.80;;;4.20;99.90;;;;;;5050266;28;20076;-64
2023/01/31 04:33:56;;;;;;;21.15;2.10;;;4.10;99.90;;;;;;5030745;28;20619;-64
2023/01/31 04:36:23;;;;;;;23.60;2.28;;;4.20;99.90;;;;;;5047283;28;20136;-64
2023/01/31 04:38:49;;;;;;;18.77;2.10;;;4.20;99.90;;;;;;5040011;28;20105;-64
2023/01/31 04:41:14;;;;;;;20.10;2.13;;;4.20;99.90;;;;;;5049269;28;20041;-63
2023/01/31 04:43:40;;;;;;;26.45;2.35;;;4.20;99.90;;;;;;5047825;28;20048;-64
2023/01/31 04:46:06;;;;;;;20.63;2.13;;;4.30;99.90;;;;;;5048499;28;20052;-63
2023/01/31 04:48:32;;;;;;;20.67;2.05;;;4.30;99.90;;;;;;5048989;28;20032;-63
2023/01/31 04:50:58;;;;;;;21.42;2.30;;;4.30;99.90;;;;;;5048538;28;20055;-64
2023/01/31 04:53:24;;;;;;;24.13;2.65;;;4.40;99.90;;;;;;5050767;28;20044;-63
2023/01/31 04:55:53;;;;;;;17.80;3.28;;;4.40;99.90;;;;;;5032157;28;20036;-63
2023/01/31 04:58:19;;;;;;;15.85;2.10;;;4.40;99.90;;;;;;5030876;28;20400;-64
2023/01/31 05:00:45;;;;;;;20.30;2.15;;;4.40;99.90;;;;;;5032123;28;20313;-63
2023/01/31 05:03:11;;;;;;;23.05;2.22;;;4.40;99.90;;;;;;5050583;28;20348;-64
2023/01/31 05:05:37;;;;;;;25.90;2.22;;;4.40;99.90;;;;;;5051320;28;20111;-63
2023/01/31 05:08:03;;;;;;;23.73;2.63;;;4.40;99.90;;;;;;5050344;28;20562;-63
2023/01/31 05:10:29;;;;;;;23.83;2.53;;;4.40;99.90;;;;;;5047835;28;20125;-63
2023/01/31 05:12:54;;;;;;;23.42;3.08;;;4.40;99.90;;;;;;5047472;28;20449;-63
2023/01/31 05:15:21;;;;;;;23.77;2.55;;;4.40;99.90;;;;;;5031389;28;20045;-63
2023/01/31 05:18:01;;;;;;;29.50;3.10;;;4.50;99.90;;;;;;5048078;28;20095;-63
2023/01/31 05:20:35;;;;;;;35.92;3.08;;;4.50;99.90;;;;;;5048031;28;20460;-62
2023/01/31 05:23:01;;;;;;;;;;;4.60;99.90;;;;;;5049957;28;20102;-62
2023/01/31 05:25:27;;;;;;;20.83;2.30;;;4.60;99.90;;;;;;5031427;28;19924;-63
2023/01/31 05:27:53;;;;;;;33.47;3.60;;;4.70;99.90;;;;;;5047302;28;20494;-62
2023/01/31 05:30:19;;;;;;;33.80;3.25;;;4.70;99.90;;;;;;5048027;28;20076;-63
2023/01/31 05:32:47;;;;;;;25.23;3.05;;;4.80;99.90;;;;;;5049630;28;20047;-63
2023/01/31 05:35:13;;;;;;;31.92;3.03;;;4.90;99.90;;;;;;5048410;28;20041;-63
2023/01/31 05:37:41;;;;;;;31.73;3.83;;;4.90;99.90;;;;;;5048466;28;20083;-63
2023/01/31 05:40:10;;;;;;;21.20;3.40;;;4.90;99.90;;;;;;5047822;28;20048;-62
2023/01/31 05:42:35;;;;;;;23.33;3.28;;;4.90;99.90;;;;;;5048487;28;20459;-63
2023/01/31 05:45:01;;;;;;;34.47;4.10;;;5.00;99.90;;;;;;5049755;28;20316;-63
2023/01/31 05:47:28;;;;;;;30.65;3.55;;;5.10;99.90;;;;;;5050574;28;20118;-63
2023/01/31 05:49:54;;;;;;;29.60;3.85;;;5.10;99.90;;;;;;5030753;28;20044;-63
2023/01/31 05:52:19;;;;;;;33.35;4.03;;;5.20;99.90;;;;;;5047929;28;20044;-62
2023/01/31 05:54:45;;;;;;;25.80;3.78;;;5.30;99.90;;;;;;5026975;28;20044;-63
2023/01/31 05:57:11;;;;;;;37.53;4.07;;;5.30;99.90;;;;;;5033692;28;20171;-63
2023/01/31 05:59:36;;;;;;;27.67;3.65;;;5.40;99.90;;;;;;5052092;28;20133;-62
2023/01/31 06:02:02;;;;;;;23.20;3.30;;;5.40;99.90;;;;;;5052546;28;20047;-62
2023/01/31 06:04:28;;;;;;;24.70;3.13;;;5.40;99.90;;;;;;5033780;28;20367;-64
2023/01/31 06:06:53;;;;;;;28.77;3.63;;;5.50;99.90;;;;;;5053197;28;20124;-63
2023/01/31 06:09:19;;;;;;;18.70;3.10;;;5.50;99.90;;;;;;5052460;28;20139;-64
2023/01/31 06:11:45;;;;;;;25.95;3.10;;;5.50;99.90;;;;;;5035636;28;20090;-64
2023/01/31 06:14:10;;;;;;;36.78;4.20;;;5.50;99.90;;;;;;5051625;28;20117;-64
2023/01/31 06:16:36;;;;;;;26.05;3.53;;;5.50;99.90;;;;;;5053700;28;20123;-63
2023/01/31 06:19:02;;;;;;;26.52;3.00;;;5.50;99.90;;;;;;5053509;28;20044;-63
2023/01/31 06:21:27;;;;;;;26.17;3.58;;;5.60;99.90;;;;;;5053115;28;20040;-63
2023/01/31 06:23:53;;;;;;;27.73;3.28;;;5.50;99.90;;;;;;5053197;28;20359;-63
2023/01/31 06:26:19;;;;;;;36.03;4.18;;;5.60;99.90;;;;;;5050127;28;20044;-63
2023/01/31 06:28:44;;;;;;;28.17;3.85;;;5.50;99.90;;;;;;5047671;28;20045;-63
2023/01/31 06:31:11;;;;;;;24.13;3.33;;;5.60;99.90;;;;;;5030475;28;20029;-64
2023/01/31 06:33:37;;;;;;;26.00;2.97;;;5.60;99.90;;;;;;5047256;28;20504;-63
2023/01/31 06:36:04;;;;;;;24.90;3.35;;;5.60;99.90;;;;;;5030478;28;20032;-64
2023/01/31 06:38:30;;;;;;;26.08;3.60;;;5.70;99.90;;;;;;5000224;28;20050;-64
2023/01/31 06:40:56;;;;;;;27.92;3.35;;;5.70;99.90;;;;;;5015646;28;20405;-64
2023/01/31 06:43:21;;;;;;;26.40;3.38;;;5.70;99.90;;;;;;5049121;28;20041;-64
2023/01/31 06:45:48;;;;;;;26.05;3.28;;;5.70;99.90;;;;;;5046318;28;20497;-64
2023/01/31 06:48:14;;;;;;;25.65;4.18;;;5.70;99.90;;;;;;5047979;28;20059;-64
2023/01/31 06:50:41;;;;;;;29.05;4.32;;;5.70;99.90;;;;;;5048342;28;20891;-65
2023/01/31 06:53:07;;;;;;;27.70;4.45;;;5.70;99.90;;;;;;5047923;28;20044;-64
2023/01/31 06:55:33;;;;;;;30.08;3.83;;;5.70;99.90;;;;;;5048251;28;21032;-65
2023/01/31 06:57:58;;;;;;;21.75;3.45;;;5.70;99.90;;;;;;5052187;28;20059;-64
2023/01/31 07:00:24;;;;;;;31.13;3.95;;;5.70;99.90;;;;;;5050939;28;20076;-64
2023/01/31 07:02:51;;;;;;;29.80;3.50;;;5.70;99.90;;;;;;5047851;28;20044;-64
2023/01/31 07:05:18;;;;;;;25.23;3.92;;;5.70;99.90;;;;;;5048322;28;20040;-62
2023/01/31 07:07:44;;;;;;;29.05;4.38;;;5.70;99.90;;;;;;5049259;28;20502;-64
2023/01/31 07:10:10;;;;;;;29.48;4.15;;;5.70;99.90;;;;;;5051131;28;20044;-64
2023/01/31 07:12:37;;;;;;;24.58;3.15;;;5.70;99.90;;;;;;5050732;28;20256;-64
2023/01/31 07:15:03;;;;;;;24.85;3.17;;;5.70;99.90;;;;;;5053020;28;20492;-63
2023/01/31 07:17:28;;;;;;;29.88;4.20;;;5.70;99.90;;;;;;5034368;28;20593;-64
2023/01/31 07:19:54;;;;;;;30.67;4.50;;;5.70;99.90;;;;;;5051596;28;20039;-65
2023/01/31 07:22:20;;;;;;;25.35;4.10;;;5.70;99.90;;;;;;5050173;28;20121;-63
2023/01/31 07:24:47;;;;;;;31.30;3.75;;;5.80;99.90;;;;;;5048926;28;20040;-63
2023/01/31 07:27:13;;;;;;;30.95;4.07;;;5.80;99.90;;;;;;5033560;28;20197;-63
2023/01/31 07:29:39;;;;;;;33.17;4.00;;;5.80;99.90;;;;;;5051242;28;20044;-65
2023/01/31 07:32:05;;;;;;;28.63;3.92;;;5.80;99.90;;;;;;5045729;28;20132;-66
2023/01/31 07:34:31;;;;;;;24.58;3.60;;;5.80;99.90;;;;;;5048893;28;20422;-65
2023/01/31 07:36:56;;;;;;;26.27;3.67;;;5.80;99.90;;;;;;5047882;28;20040;-65
2023/01/31 07:39:22;;;;;;;21.88;3.22;;;5.80;99.90;;;;;;5048114;28;20041;-65
2023/01/31 07:41:49;;;;;;;20.95;2.83;;;5.90;99.90;;;;;;5031225;28;20044;-65
2023/01/31 07:44:14;;;;;;;27.08;3.95;;;5.90;99.90;;;;;;5032240;28;20131;-65
2023/01/31 07:46:40;;;;;;;28.25;4.18;;;5.90;99.90;;;;;;5049400;28;20131;-66
2023/01/31 07:49:08;;;;;;;18.48;3.17;;;5.90;99.90;;;;;;5031874;28;20044;-65
2023/01/31 07:51:34;;;;;;;24.45;2.72;;;5.90;99.90;;;;;;5030624;28;20114;-65
2023/01/31 07:54:01;;;;;;;27.67;3.65;;;5.90;99.90;;;;;;5032222;28;20667;-65
2023/01/31 07:56:27;;;;;;;25.42;2.92;;;5.90;99.90;;;;;;5047556;28;20041;-65
2023/01/31 07:58:53;;;;;;;20.55;2.72;;;5.90;99.90;;;;;;5048301;28;20056;-65
2023/01/31 08:04:10;;;;;;;26.00;2.95;;;6.00;99.90;;;;;;5031685;28;20072;-65
2023/01/31 08:06:38;;;;;;;26.73;3.35;;;6.00;99.90;;;;;;5047659;28;20064;-64
2023/01/31 08:09:04;;;;;;;29.58;3.50;;;5.90;99.90;;;;;;5048586;28;20362;-64
2023/01/31 08:11:30;;;;;;;24.73;3.00;;;6.00;99.90;;;;;;5046114;28;21144;-64
2023/01/31 08:13:56;;;;;;;21.45;2.08;;;6.00;99.90;;;;;;5044676;28;20043;-65
2023/01/31 08:16:22;;;;;;;20.13;2.92;;;6.00;99.90;;;;;;5047057;28;20040;-65
2023/01/31 08:18:50;;;;;;;16.67;2.17;;;6.00;99.90;;;;;;5047083;28;20127;-64
2023/01/31 08:21:16;;;;;;;13.80;1.90;;;6.00;99.90;;;;;;5030212;28;20052;-65
2023/01/31 08:23:42;;;;;;;21.10;2.78;;;6.10;99.90;;;;;;5046960;28;20717;-65
2023/01/31 08:26:21;;;;;;;21.45;2.78;;;6.10;99.90;;;;;;5044542;28;20071;-67
2023/01/31 08:28:49;;;;;;;22.23;2.50;;;6.20;99.90;;;;;;5029934;28;20240;-64
2023/01/31 08:31:18;;;;;;;22.52;2.97;;;6.20;99.90;;;;;;5031568;28;20067;-63
2023/01/31 08:33:43;;;;;;;19.55;2.75;;;6.20;99.90;;;;;;5047222;28;20862;-63
2023/01/31 08:36:18;;;;;;;18.17;1.60;;;6.20;99.90;;;;;;5048262;28;20829;-63
2023/01/31 08:38:44;;;;;;;21.08;2.15;;;6.20;99.90;;;;;;5047560;28;20048;-64
2023/01/31 08:41:13;;;;;;;14.55;1.65;;;6.30;99.90;;;;;;5044042;28;20047;-64
2023/01/31 08:43:39;;;;;;;18.65;2.40;;;6.40;99.90;;;;;;5049096;28;20071;-63
2023/01/31 08:46:05;;;;;;;24.85;2.85;;;6.40;99.90;;;;;;5050579;28;20048;-65
2023/01/31 08:48:36;;;;;;;15.68;2.13;;;6.40;99.90;;;;;;5049768;28;20148;-66
2023/01/31 08:51:06;;;;;;;14.15;2.28;;;6.40;99.90;;;;;;5047901;28;20331;-65
2023/01/31 08:53:33;;;;;;;18.52;2.22;;;6.60;99.90;;;;;;5015491;28;20466;-65
2023/01/31 08:56:04;;;;;;;15.48;1.70;;;6.50;99.90;;;;;;5048812;28;20071;-64
2023/01/31 08:58:36;;;;;;;13.40;2.17;;;6.50;99.90;;;;;;5022009;28;20056;-64
2023/01/31 09:01:13;;;;;;;17.73;1.92;;;6.50;99.90;;;;;;5048644;28;20135;-64
2023/01/31 09:03:39;;;;;;;19.80;2.30;;;6.50;99.90;;;;;;5047644;28;20143;-65
2023/01/31 09:06:07;;;;;;;22.25;3.15;;;6.50;99.90;;;;;;5047869;28;20453;-65
2023/01/31 09:08:33;;;;;;;16.23;2.55;;;6.40;99.90;;;;;;5047975;28;20037;-64
2023/01/31 09:10:59;;;;;;;22.15;3.20;;;6.50;99.90;;;;;;5051165;28;20620;-65
2023/01/31 09:13:28;;;;;;;20.42;2.15;;;6.50;99.90;;;;;;5046836;28;20155;-65
2023/01/31 09:16:06;;;;;;;16.05;1.80;;;6.50;99.90;;;;;;5031264;28;20062;-62
2023/01/31 09:18:33;;;;;;;20.73;2.05;;;6.60;99.90;;;;;;5048565;28;20068;-63
2023/01/31 09:21:07;;;;;;;17.17;2.53;;;6.60;99.90;;;;;;5048888;28;20052;-63
2023/01/31 09:23:34;;;;;;;20.92;3.03;;;6.60;99.90;;;;;;5049524;28;20041;-63
2023/01/31 09:25:59;;;;;;;20.80;3.10;;;6.60;99.90;;;;;;5048362;28;20132;-63
2023/01/31 09:28:25;;;;;;;16.58;2.13;;;6.60;99.90;;;;;;5051931;28;20463;-63
2023/01/31 09:30:54;;;;;;;17.73;2.45;;;6.70;99.90;;;;;;5053459;28;20052;-63
2023/01/31 09:33:21;;;;;;;15.95;2.20;;;6.70;99.90;;;;;;5052302;28;20355;-64
2023/01/31 09:36:02;;;;;;;22.20;2.67;;;6.90;99.90;;;;;;5052472;28;20569;-63
2023/01/31 09:38:28;;;;;;;21.17;2.88;;;6.80;99.90;;;;;;5035566;28;20251;-66
2023/01/31 09:40:56;;;;;;;26.23;2.85;;;6.70;99.90;;;;;;5052028;28;20044;-63
2023/01/31 09:43:27;;;;;;;22.25;2.30;;;6.60;99.90;;;;;;5055099;28;20638;-64
2023/01/31 09:45:57;;;;;;;25.13;2.55;;;6.70;99.90;;;;;;5051943;28;20098;-63
2023/01/31 09:48:28;;;;;;;22.83;2.75;;;6.60;99.90;;;;;;5052414;28;20032;-63
2023/01/31 09:50:57;;;;;;;15.77;2.15;;;6.60;99.90;;;;;;5050990;28;20318;-65
2023/01/31 09:53:29;;;;;;;16.33;2.15;;;6.60;99.90;;;;;;5051946;28;20032;-65
2023/01/31 09:56:08;;;;;;;19.08;2.20;;;6.50;99.90;;;;;;5034907;28;20060;-65
2023/01/31 09:59:09;;;;;;;27.05;2.33;;;6.50;99.90;;;;;;5050627;28;20068;-65
2023/01/31 10:01:46;;;;;;;22.73;2.25;;;6.50;99.90;;;;;;5029639;28;20407;-65
2023/01/31 10:04:30;;;;;;;20.05;2.40;;;6.50;99.90;;;;;;5051036;28;20056;-65
2023/01/31 10:07:10;;;;;;;18.70;2.70;;;6.40;99.90;;;;;;5035310;28;20138;-65
2023/01/31 10:09:52;;;;;;;13.93;2.17;;;6.50;99.90;;;;;;5033832;28;20548;-65
2023/01/31 10:12:26;;;;;;;22.17;2.88;;;6.60;99.90;;;;;;5051764;28;20053;-64
2023/01/31 10:15:01;;;;;;;22.10;2.17;;;6.50;99.90;;;;;;5052144;28;20036;-64
2023/01/31 10:17:42;;;;;;;24.02;2.63;;;6.60;99.90;;;;;;5053898;28;20032;-65
2023/01/31 10:20:24;;;;;;;24.35;3.42;;;6.50;99.90;;;;;;5051043;28;20063;-65
2023/01/31 10:23:09;;;;;;;30.02;3.17;;;6.50;99.90;;;;;;5052775;28;20055;-65
2023/01/31 10:25:43;;;;;;;14.85;1.95;;;6.40;99.90;;;;;;5052598;28;20044;-65
2023/01/31 10:28:15;;;;;;;15.38;1.83;;;6.50;1.00;;;;;;5053760;28;20635;-65
2023/01/31 10:30:49;;;;;;;23.10;2.60;;;6.40;1.00;;;;;;5053077;28;20036;-65
2023/01/31 10:33:35;;;;;;;12.35;1.15;;;6.40;1.00;;;;;;5034341;28;20597;-64
2023/01/31 10:36:09;;;;;;;25.73;2.97;;;6.40;4.30;;;;;;5050306;28;20130;-64
2023/01/31 10:38:40;;;;;;;;;;;6.40;42.80;;;;;;5052549;28;20105;-65
2023/01/31 10:41:17;;;;;;;18.15;2.15;;;6.40;85.20;;;;;;5049779;28;19927;-64
2023/01/31 10:44:35;;;;;;;14.40;1.40;;;6.40;99.90;;;;;;5053217;28;20036;-64
2023/01/31 10:47:01;;;;;;;21.70;2.53;;;6.40;99.90;;;;;;5013938;28;20466;-65
2023/01/31 10:49:28;;;;;;;21.27;2.38;;;6.40;99.90;;;;;;5051300;28;20052;-64
2023/01/31 10:52:07;;;;;;;11.93;1.40;;;6.40;99.90;;;;;;5052461;28;20473;-64
2023/01/31 10:55:02;;;;;;;21.98;2.60;;;6.50;99.90;;;;;;5052867;28;20422;-65
2023/01/31 10:57:30;;;;;;;17.27;2.42;;;6.50;99.90;;;;;;5052110;28;20082;-65
2023/01/31 10:59:56;;;;;;;16.73;2.00;;;6.50;99.90;;;;;;5050829;28;20264;-65
2023/01/31 11:02:25;;;;;;;16.30;1.83;;;6.60;99.90;;;;;;5051639;28;20636;-65
2023/01/31 11:04:53;;;;;;;15.15;1.95;;;6.60;99.90;;;;;;5049925;28;20498;-65
2023/01/31 11:07:19;;;;;;;18.58;2.38;;;6.60;99.90;;;;;;5050812;28;20040;-64
2023/01/31 11:09:52;;;;;;;16.48;2.47;;;6.60;99.90;;;;;;5048640;28;20307;-65
2023/01/31 11:12:17;;;;;;;13.98;1.85;;;6.60;99.90;;;;;;5051689;28;20294;-64
2023/01/31 11:14:43;;;;;;;11.07;1.38;;;6.70;99.90;;;;;;5051666;28;20044;-65
2023/01/31 11:17:36;;;;;;;11.50;2.15;;;6.80;99.90;;;;;;5050723;28;20081;-65
2023/01/31 11:20:05;;;;;;;14.00;2.17;;;6.70;99.90;;;;;;5046963;28;20057;-65
2023/01/31 11:22:36;;;;;;;14.52;1.73;;;6.80;99.90;;;;;;5051162;28;20184;-65
2023/01/31 11:25:03;;;;;;;10.10;1.38;;;6.80;99.90;;;;;;5051304;28;20044;-65
2023/01/31 11:27:41;;;;;;;20.92;2.80;;;6.80;99.90;;;;;;5050266;28;20387;-65
2023/01/31 11:30:37;;;;;;;16.02;1.92;;;6.90;99.90;;;;;;5049013;28;20688;-64
2023/01/31 11:33:03;;;;;;;24.88;2.95;;;6.90;99.90;;;;;;5051219;28;20537;-63
2023/01/31 11:35:31;;;;;;;26.92;3.72;;;6.90;99.90;;;;;;5050246;28;20572;-62
2023/01/31 11:38:21;;;;;;;22.63;2.97;;;6.80;99.90;;;;;;5050176;28;20286;-63
2023/01/31 11:40:47;;;;;;;16.75;2.50;;;6.90;99.90;;;;;;5051238;28;20040;-65
2023/01/31 11:43:18;;;;;;;23.10;2.88;;;6.90;99.90;;;;;;5051402;28;20057;-64
2023/01/31 11:45:52;;;;;;;25.67;3.47;;;6.90;99.90;;;;;;5048574;28;20276;-65
2023/01/31 11:48:22;;;;;;;24.88;2.63;;;6.90;99.90;;;;;;5051563;28;20098;-64
2023/01/31 11:50:53;;;;;;;25.35;2.97;;;6.90;99.90;;;;;;5048389;28;20255;-65
2023/01/31 11:53:42;;;;;;;19.27;2.45;;;7.00;99.90;;;;;;5049322;28;20150;-64
2023/01/31 11:56:29;;;;;;;23.35;3.03;;;7.00;99.90;;;;;;5036046;28;20081;-62
2023/01/31 11:59:06;;;;;;;28.95;3.28;;;7.10;99.90;;;;;;5051547;28;20036;-62
2023/01/31 12:01:33;;;;;;;20.67;2.70;;;7.20;99.90;;;;;;5048540;28;20481;-63
2023/01/31 12:04:02;;;;;;;13.43;2.03;;;7.20;99.90;;;;;;5050277;28;20143;-64
2023/01/31 12:06:32;;;;;;;25.02;2.22;;;7.20;99.90;;;;;;5050465;28;20049;-63
2023/01/31 12:09:00;;;;;;;25.67;3.20;;;7.30;99.90;;;;;;5048307;28;20060;-64
2023/01/31 12:11:28;;;;;;;26.52;2.88;;;7.30;99.90;;;;;;5046625;28;20059;-64
2023/01/31 12:14:05;;;;;;;23.42;2.58;;;7.40;99.90;;;;;;5031435;28;20080;-65
2023/01/31 12:16:33;;;;;;;17.38;2.10;;;7.40;99.90;;;;;;5030948;28;20102;-64
2023/01/31 12:19:19;;;;;;;20.23;3.03;;;7.50;99.90;;;;;;5054745;28;20869;-64
2023/01/31 12:22:01;;;;;;;18.65;2.35;;;7.50;99.90;;;;;;5052962;28;20067;-64
2023/01/31 12:25:01;;;;;;;17.55;2.10;;;7.40;99.90;;;;;;5049221;28;20083;-64
2023/01/31 12:28:00;;;;;;;21.05;2.65;;;7.40;99.90;;;;;;5046980;28;20098;-66
2023/01/31 12:30:44;;;;;;;19.50;2.65;;;7.40;99.90;;;;;;5048723;28;20033;-66
2023/01/31 12:33:19;;;;;;;16.52;1.70;;;7.60;99.90;;;;;;5046162;28;20040;-66
2023/01/31 12:35:48;;;;;;;20.30;2.22;;;7.60;99.90;;;;;;5048080;28;20045;-66
2023/01/31 12:38:35;;;;;;;26.52;3.60;;;7.70;99.90;;;;;;5045707;28;20039;-66
2023/01/31 12:41:20;;;;;;;16.25;1.95;;;7.70;64.30;;;;;;5046658;28;20044;-65
2023/01/31 12:43:58;;;;;;;15.38;1.90;;;7.70;1.00;;;;;;5032207;28;20075;-65
2023/01/31 12:46:54;;;;;;;20.58;2.63;;;7.90;1.00;;;;;;5051099;28;20032;-65
2023/01/31 12:49:42;;;;;;;23.83;2.85;;;7.90;1.00;;;;;;5031136;28;20040;-65
2023/01/31 12:52:24;;;;;;;15.02;2.25;;;7.90;99.90;;;;;;5030231;28;20262;-65
2023/01/31 12:55:02;;;;;;;15.00;1.83;;;8.00;99.90;;;;;;5048486;28;20040;-65
2023/01/31 12:57:31;;;;;;;17.10;2.92;;;8.20;99.90;;;;;;5054085;28;20036;-66
2023/01/31 13:00:32;;;;;;;26.58;2.72;;;8.30;99.90;;;;;;5052360;28;20541;-65
2023/01/31 13:03:26;;;;;;;17.10;1.92;;;8.40;99.90;;;;;;4956958;28;20050;-66
2023/01/31 13:05:57;;;;;;;16.08;1.77;;;8.40;99.90;;;;;;5050012;28;20136;-64
2023/01/31 13:08:27;;;;;;;19.52;1.90;;;8.50;99.90;;;;;;5054001;28;20054;-64
2023/01/31 13:11:21;;;;;;;12.45;1.48;;;8.50;99.90;;;;;;5053820;28;20587;-64
2023/01/31 13:13:46;;;;;;;;;;;8.60;99.90;;;;;;5052887;28;20040;-66